Newark, NJ

9:25 PM EDT on August 03, 2015 (GMT -0400)
Rutgers Biomedical and Health Sciences Campus | | Change Station
CLOSE
Current Station
Personal Weather Station
Location: Newark, NJ
Elevation: 144 ft
Nearby Weather Stations

Elev 144 ft 40.74 °N, 74.19 °W | Updated 16 seconds ago

Mostly Cloudy
Mostly Cloudy
85.2 °F
Feels Like 86 °F
N
6.8
Wind Variable Wind from SE
Gusts 8.0 mph

Today
High -- | Low -- °F
--% Chance of Precip.
Yesterday
High -- | Low -- °F
Precip. -- in
5:54 AM 8:10 PM
Waning Gibbous, 82% visible
Pressure 29.78 in
Visibility 10.0 miles
Clouds Few 6000 ft
Scattered Clouds 12000 ft
Mostly Cloudy 25000 ft
Heat Index 86 °F
Dew Point 64 °F
Humidity 48%
Rainfall 0.00 in
Snow Depth Not available.
UV 0.0 out of 12
Pollen 7.80 out of 12
Air Quality Not available.
Flu Activity Not available.
METAR KEWR 040051Z 23011G18KT 10SM FEW060 SCT120 BKN250 30/14 A2978 RMK AO2 SLP085 OCNL LTGIC DSNT W CB DSNT W MOV NE T03000144

More Conditions Fewer Conditions

Pressure 29.78 in
Visibility 10.0 miles
Clouds Few 6000 ft
Scattered Clouds 12000 ft
Mostly Cloudy 25000 ft
Heat Index 86 °F
Dew Point 64 °F
Humidity 48%
Rainfall 0.00 in
Snow Depth Not available.
UV 0.0 out of 12
Pollen 7.80 out of 12
Air Quality Not available.
Flu Activity Not available.
METAR KEWR 040051Z 23011G18KT 10SM FEW060 SCT120 BKN250 30/14 A2978 RMK AO2 SLP085 OCNL LTGIC DSNT W CB DSNT W MOV NE T03000144

More Conditions Fewer Conditions

10-Day Weather Forecast

×

Almanac

Astronomy

Aug. 03, 2015 Rise Set
Actual Time
Civil Twilight
Nautical Twilight
Astronomical Twilight
Moon
Length of Visible Light
Length of Day
Tomorrow will be .
, % of the Moon is Illuminated

Today's Extremes

State Highs State Lows

Community

WunderPhotos

Upload Photos

1,843,814 photos uploaded!

WunderBlogs® & News

Nearby

Air Quality

  Air Quality AQ Index Pollutant
Not available.

Snow Depth

Station Depth Elevation

Earthquake Activity

City Distance Mag. Time & Date
Minimum magnitude displayed is 2.5.

Coastal Water Temperatures

Place Temperature

Stations

Nearby Weather Stations

Station Location Temp. Windchill Dew Point Humidity Wind Precip. Elev Updated Type